Time;durP1;ratioP1;P1;durP2;ratioP2;P2;SDS_P1;SDS_P2;PMS_P1;PMS_P2;Temp;Humidity;BMP_temperature;BMP_pressure;BME280_temperature;BME280_humidity;BME280_pressure;Samples;Min_cycle;Max_cycle;Signal;HPM_P1;HPM_P2
2022/04/25 00:01:41;;;;;;;14.40;7.50;;;9.40;99.90;;;;;;5051138;28;20053;-70
2022/04/25 00:04:07;;;;;;;13.50;7.80;;;9.30;99.90;;;;;;5050897;28;20091;-71
2022/04/25 00:06:34;;;;;;;17.02;7.13;;;9.40;99.90;;;;;;5050874;28;20075;-72
2022/04/25 00:09:00;;;;;;;15.70;8.23;;;9.40;99.90;;;;;;5050876;28;20029;-72
2022/04/25 00:11:26;;;;;;;14.68;7.65;;;9.30;99.90;;;;;;5051052;28;20025;-71
2022/04/25 00:13:52;;;;;;;16.92;7.75;;;9.30;99.90;;;;;;5064751;28;20399;-72
2022/04/25 00:16:18;;;;;;;17.05;8.60;;;9.30;99.90;;;;;;5070603;28;20032;-71
2022/04/25 00:18:45;;;;;;;15.07;8.10;;;9.30;99.90;;;;;;5060254;28;20497;-71
2022/04/25 00:21:11;;;;;;;14.57;8.27;;;9.30;99.90;;;;;;5033026;28;20060;-71
2022/04/25 00:23:36;;;;;;;16.02;8.02;;;9.30;99.90;;;;;;5032947;28;20497;-71
2022/04/25 00:26:02;;;;;;;15.80;8.07;;;9.20;99.90;;;;;;5050601;28;20044;-71
2022/04/25 00:28:27;;;;;;;15.40;7.53;;;9.20;99.90;;;;;;5050849;28;20018;-71
2022/04/25 00:30:53;;;;;;;15.32;8.52;;;9.20;99.90;;;;;;5050383;28;20162;-72
2022/04/25 00:33:20;;;;;;;12.93;8.40;;;9.20;99.90;;;;;;5050851;28;20040;-71
2022/04/25 00:35:45;;;;;;;16.45;8.43;;;9.20;99.90;;;;;;5050823;28;20488;-72
2022/04/25 00:38:11;;;;;;;15.60;8.18;;;9.20;99.90;;;;;;5050760;28;20150;-71
2022/04/25 00:40:37;;;;;;;16.75;8.85;;;9.10;99.90;;;;;;5051147;28;20057;-71
2022/04/25 00:43:03;;;;;;;15.85;8.70;;;9.10;99.90;;;;;;5032982;28;20033;-71
2022/04/25 00:45:32;;;;;;;16.83;8.20;;;9.10;99.90;;;;;;5050437;28;20029;-73
2022/04/25 00:47:58;;;;;;;18.85;9.27;;;9.10;99.90;;;;;;5050560;28;20021;-71
2022/04/25 00:50:24;;;;;;;18.63;8.13;;;9.00;99.90;;;;;;5050428;28;20017;-72
2022/04/25 00:52:50;;;;;;;14.50;8.85;;;9.00;99.90;;;;;;5050532;28;20032;-72
2022/04/25 00:55:16;;;;;;;18.60;9.30;;;9.00;99.90;;;;;;5050535;28;20515;-72
2022/04/25 00:57:42;;;;;;;16.80;8.45;;;9.00;99.90;;;;;;5050436;28;20060;-72
2022/04/25 01:00:10;;;;;;;16.58;9.13;;;9.00;99.90;;;;;;5050389;28;20017;-72
2022/04/25 01:02:36;;;;;;;16.45;8.70;;;8.90;99.90;;;;;;5050185;28;20059;-72
2022/04/25 01:05:04;;;;;;;14.65;9.07;;;9.00;99.90;;;;;;5050702;28;20025;-71
2022/04/25 01:07:31;;;;;;;19.77;9.60;;;8.90;99.90;;;;;;5032568;28;20395;-72
2022/04/25 01:09:57;;;;;;;18.55;8.65;;;8.90;99.90;;;;;;5054250;28;20034;-71
2022/04/25 01:12:22;;;;;;;18.92;9.20;;;8.90;99.90;;;;;;5055645;28;20164;-71
2022/04/25 01:14:56;;;;;;;17.70;8.70;;;8.90;99.90;;;;;;5056298;28;20082;-71
2022/04/25 01:17:22;;;;;;;19.70;9.00;;;8.90;99.90;;;;;;5073527;28;20037;-71
2022/04/25 01:19:47;;;;;;;18.55;9.15;;;8.90;99.90;;;;;;5073613;28;20048;-71
2022/04/25 01:22:16;;;;;;;16.55;9.25;;;8.90;99.90;;;;;;5055726;28;20028;-72
2022/04/25 01:27:45;;;;;;;15.50;9.45;;;8.90;99.90;;;;;;4991713;28;20481;-71
2022/04/25 01:30:11;;;;;;;15.32;9.80;;;8.80;99.90;;;;;;4991779;28;20139;-71
2022/04/25 01:32:37;;;;;;;20.30;10.65;;;8.80;99.90;;;;;;4991735;28;20601;-72
2022/04/25 01:35:04;;;;;;;19.17;9.50;;;8.80;99.90;;;;;;4991650;28;20030;-73
2022/04/25 01:37:31;;;;;;;18.15;9.40;;;8.80;99.90;;;;;;4991416;28;20046;-71
2022/04/25 01:39:57;;;;;;;19.27;9.70;;;8.80;99.90;;;;;;4991797;28;20106;-72
2022/04/25 01:42:23;;;;;;;16.80;8.55;;;8.80;99.90;;;;;;4991351;28;20027;-71
2022/04/25 01:44:50;;;;;;;14.57;8.80;;;8.80;99.90;;;;;;4991462;28;20093;-71
2022/04/25 01:47:16;;;;;;;20.00;9.70;;;8.80;99.90;;;;;;4991310;28;20022;-71
2022/04/25 01:49:41;;;;;;;18.63;9.23;;;8.80;99.90;;;;;;4991418;28;20026;-72
2022/04/25 01:52:31;;;;;;;17.55;9.50;;;8.80;99.90;;;;;;4990915;28;20045;-72
2022/04/25 01:54:58;;;;;;;16.65;8.68;;;8.80;99.90;;;;;;4990656;28;20065;-72
2022/04/25 01:57:23;;;;;;;19.40;8.85;;;8.80;99.90;;;;;;4960794;28;20579;-72
2022/04/25 01:59:49;;;;;;;16.77;9.32;;;8.80;99.90;;;;;;5072885;28;20028;-72
2022/04/25 02:02:15;;;;;;;14.05;8.80;;;8.90;99.90;;;;;;5073045;28;20025;-75
2022/04/25 02:04:41;;;;;;;15.23;8.38;;;8.80;99.90;;;;;;5073059;28;20441;-73
2022/04/25 02:07:08;;;;;;;15.35;9.10;;;8.80;99.90;;;;;;5072611;28;20025;-73
2022/04/25 02:09:35;;;;;;;18.55;9.25;;;8.90;99.90;;;;;;5072860;28;20067;-72
2022/04/25 02:12:01;;;;;;;15.10;9.02;;;8.90;99.90;;;;;;5072431;28;20017;-73
2022/04/25 02:14:31;;;;;;;15.98;8.90;;;8.90;99.90;;;;;;5053248;28;20242;-72
2022/04/25 02:16:59;;;;;;;20.33;9.82;;;8.80;99.90;;;;;;5052355;28;20033;-72
2022/04/25 02:19:26;;;;;;;14.20;9.20;;;8.80;99.90;;;;;;5052067;28;20126;-73
2022/04/25 02:21:52;;;;;;;16.65;8.88;;;8.80;99.90;;;;;;5052377;28;20257;-72
2022/04/25 02:24:18;;;;;;;16.90;8.68;;;8.70;99.90;;;;;;5052345;28;20469;-73
2022/04/25 02:26:43;;;;;;;15.43;8.48;;;8.70;99.90;;;;;;5052737;28;20033;-73
2022/04/25 02:29:09;;;;;;;24.98;8.73;;;8.70;99.90;;;;;;5052097;28;20025;-72
2022/04/25 02:31:35;;;;;;;16.63;8.85;;;8.70;99.90;;;;;;5052016;28;20027;-72
2022/04/25 02:34:00;;;;;;;19.30;8.80;;;8.70;99.90;;;;;;5052027;28;20085;-72
2022/04/25 02:36:26;;;;;;;17.42;9.13;;;8.70;99.90;;;;;;5052088;28;20309;-73
2022/04/25 02:38:52;;;;;;;15.75;8.95;;;8.80;99.90;;;;;;5051928;28;20079;-73
2022/04/25 02:41:18;;;;;;;18.92;9.00;;;8.80;99.90;;;;;;5051958;28;20021;-72
2022/04/25 02:43:44;;;;;;;13.35;8.55;;;8.90;99.90;;;;;;5052176;28;20416;-71
2022/04/25 02:46:15;;;;;;;20.52;8.85;;;8.90;99.90;;;;;;5051748;28;20040;-71
2022/04/25 02:48:42;;;;;;;18.92;8.60;;;9.00;99.90;;;;;;5052010;28;20024;-71
2022/04/25 02:51:09;;;;;;;16.80;9.45;;;9.10;99.90;;;;;;5051693;28;20025;-73
2022/04/25 02:53:36;;;;;;;17.63;8.75;;;9.10;99.90;;;;;;5051778;28;20443;-72
2022/04/25 02:56:03;;;;;;;21.88;8.95;;;9.10;99.90;;;;;;5051980;28;20037;-72
2022/04/25 02:58:30;;;;;;;17.23;8.32;;;9.10;99.90;;;;;;5051542;28;20021;-73
2022/04/25 03:00:56;;;;;;;17.20;8.32;;;9.10;99.90;;;;;;5051871;28;20369;-72
2022/04/25 03:03:24;;;;;;;16.13;7.97;;;9.10;99.90;;;;;;5051628;28;20036;-71
2022/04/25 03:05:50;;;;;;;17.83;8.68;;;9.10;99.90;;;;;;5051789;28;20065;-72
2022/04/25 03:08:18;;;;;;;19.35;8.63;;;9.10;99.90;;;;;;5033595;28;20465;-72
2022/04/25 03:10:45;;;;;;;18.77;8.23;;;9.10;99.90;;;;;;5051845;28;20064;-71
2022/04/25 03:13:12;;;;;;;17.67;8.35;;;9.10;99.90;;;;;;5059706;28;20033;-72
2022/04/25 03:15:41;;;;;;;21.63;9.18;;;9.20;99.90;;;;;;5071272;28;20043;-73
2022/04/25 03:18:08;;;;;;;17.90;8.63;;;9.10;99.90;;;;;;5071148;28;20039;-73
2022/04/25 03:20:34;;;;;;;17.70;8.52;;;9.10;99.90;;;;;;5049584;28;20566;-72
2022/04/25 03:23:00;;;;;;;20.83;8.75;;;9.10;99.90;;;;;;5051311;28;20269;-72
2022/04/25 03:25:25;;;;;;;18.58;8.95;;;9.10;99.90;;;;;;5051104;28;20136;-72
2022/04/25 03:27:51;;;;;;;17.52;7.88;;;9.10;99.90;;;;;;5051358;28;20025;-72
2022/04/25 03:30:18;;;;;;;21.63;9.43;;;9.10;99.90;;;;;;5051005;28;20063;-72
2022/04/25 03:32:45;;;;;;;21.25;8.68;;;9.10;99.90;;;;;;5051421;28;20040;-71
2022/04/25 03:35:15;;;;;;;18.83;8.38;;;9.10;99.90;;;;;;5051209;28;20036;-72
2022/04/25 03:37:41;;;;;;;21.30;8.63;;;9.10;99.90;;;;;;5050889;28;20028;-72
2022/04/25 03:40:09;;;;;;;20.80;8.63;;;9.10;99.90;;;;;;5050791;28;20049;-72
2022/04/25 03:42:36;;;;;;;20.15;8.88;;;9.20;99.90;;;;;;5051103;28;20060;-72
2022/04/25 03:45:04;;;;;;;24.65;8.93;;;9.20;99.90;;;;;;5050687;28;20057;-73
2022/04/25 03:47:29;;;;;;;18.48;8.77;;;9.20;99.90;;;;;;5050782;28;20105;-72
2022/04/25 03:49:56;;;;;;;19.13;8.95;;;9.20;99.90;;;;;;5051038;28;20527;-72
2022/04/25 03:52:22;;;;;;;25.33;9.32;;;9.20;99.90;;;;;;5050917;28;20059;-73
2022/04/25 03:57:32;;;;;;;21.67;9.40;;;9.20;99.90;;;;;;5049624;28;20466;-72
2022/04/25 03:59:57;;;;;;;20.30;9.32;;;9.20;99.90;;;;;;5050480;28;20029;-73
2022/04/25 04:02:23;;;;;;;19.70;9.30;;;9.20;99.90;;;;;;5050386;28;20021;-73
2022/04/25 04:04:49;;;;;;;19.67;9.00;;;9.20;99.90;;;;;;5050525;28;20029;-74
2022/04/25 04:07:15;;;;;;;17.98;9.50;;;9.20;99.90;;;;;;5050314;28;20021;-74
2022/04/25 04:09:47;;;;;;;18.10;9.40;;;9.10;99.90;;;;;;5050200;28;20024;-74
2022/04/25 04:12:14;;;;;;;19.20;9.73;;;9.10;99.90;;;;;;5050130;28;20032;-73
2022/04/25 04:14:43;;;;;;;25.50;10.05;;;9.10;99.90;;;;;;5030249;28;20056;-72
2022/04/25 04:17:08;;;;;;;23.55;10.55;;;9.00;99.90;;;;;;5030483;28;20037;-73
2022/04/25 04:19:38;;;;;;;19.58;9.70;;;9.00;99.90;;;;;;5040843;28;20049;-73
2022/04/25 04:22:05;;;;;;;23.30;9.25;;;9.00;99.90;;;;;;5050319;28;20025;-73
2022/04/25 04:24:32;;;;;;;21.35;9.77;;;9.00;99.90;;;;;;5050166;28;20123;-73
2022/04/25 04:27:01;;;;;;;20.75;9.85;;;9.00;99.90;;;;;;5050410;28;20087;-73
2022/04/25 04:29:29;;;;;;;22.52;9.85;;;9.00;99.90;;;;;;5050470;28;20090;-74
2022/04/25 04:31:56;;;;;;;23.45;10.18;;;9.00;99.90;;;;;;5050389;28;20384;-72
2022/04/25 04:34:22;;;;;;;26.48;10.98;;;9.10;99.90;;;;;;5050375;28;20021;-72
2022/04/25 04:36:50;;;;;;;22.52;10.40;;;9.10;99.90;;;;;;5049975;28;20040;-73
2022/04/25 04:39:15;;;;;;;22.48;10.90;;;9.10;99.90;;;;;;5050369;28;20149;-72
2022/04/25 04:41:41;;;;;;;23.17;10.57;;;9.10;99.90;;;;;;5032228;28;20568;-73
2022/04/25 04:44:06;;;;;;;19.60;10.88;;;9.10;99.90;;;;;;5053152;28;20070;-72
2022/04/25 04:46:32;;;;;;;27.83;11.07;;;9.20;99.90;;;;;;5054552;28;20036;-73
2022/04/25 04:48:57;;;;;;;27.20;11.57;;;9.20;99.90;;;;;;5054001;28;20040;-73
2022/04/25 04:51:23;;;;;;;24.35;12.00;;;9.20;99.90;;;;;;5054075;28;20101;-73
2022/04/25 04:53:48;;;;;;;32.42;12.25;;;9.30;99.90;;;;;;5054029;28;20102;-72
2022/04/25 04:56:14;;;;;;;24.38;11.20;;;9.30;99.90;;;;;;5059762;28;20028;-72
2022/04/25 04:58:40;;;;;;;21.70;11.02;;;9.30;99.90;;;;;;5073945;28;20031;-72
2022/04/25 05:01:05;;;;;;;24.20;11.55;;;9.40;99.90;;;;;;5073720;28;20025;-72
2022/04/25 05:03:31;;;;;;;22.73;11.65;;;9.40;99.90;;;;;;5074553;28;20020;-73
2022/04/25 05:05:57;;;;;;;20.02;11.32;;;9.40;99.90;;;;;;5074586;28;20020;-72
2022/04/25 05:08:22;;;;;;;26.65;12.55;;;9.40;99.90;;;;;;5074914;28;20029;-73
2022/04/25 05:10:48;;;;;;;29.13;11.95;;;9.40;99.90;;;;;;5074034;28;20360;-73
2022/04/25 05:13:15;;;;;;;28.65;12.80;;;9.50;99.90;;;;;;5069474;28;20016;-72
2022/04/25 05:15:42;;;;;;;26.13;12.73;;;9.50;99.90;;;;;;5072297;28;20033;-72
2022/04/25 05:18:08;;;;;;;27.63;12.93;;;9.50;99.90;;;;;;5072857;28;20050;-73
2022/04/25 05:20:34;;;;;;;23.95;12.57;;;9.50;99.90;;;;;;5054302;28;20049;-73
2022/04/25 05:23:03;;;;;;;23.92;13.20;;;9.60;99.90;;;;;;5072624;28;20028;-72
2022/04/25 05:25:29;;;;;;;30.27;13.52;;;9.60;99.90;;;;;;5071836;28;20045;-73
2022/04/25 05:27:55;;;;;;;27.92;13.88;;;9.60;99.90;;;;;;5069724;28;20070;-72
2022/04/25 05:30:23;;;;;;;28.60;13.95;;;9.60;99.90;;;;;;5069539;28;20060;-74
2022/04/25 05:32:54;;;;;;;32.50;13.82;;;9.60;99.90;;;;;;5048794;28;20021;-72
2022/04/25 05:35:26;;;;;;;25.42;13.23;;;9.60;99.90;;;;;;5068308;28;20028;-72
2022/04/25 05:37:52;;;;;;;27.52;13.77;;;9.60;99.90;;;;;;5071205;28;20121;-72
2022/04/25 05:40:19;;;;;;;27.85;14.35;;;9.60;99.90;;;;;;5072241;28;20044;-71
2022/04/25 05:42:46;;;;;;;25.40;13.85;;;9.50;99.90;;;;;;5072915;28;20039;-72
2022/04/25 05:45:13;;;;;;;26.17;14.13;;;9.50;99.90;;;;;;5071311;28;20039;-72
2022/04/25 05:47:39;;;;;;;26.10;13.13;;;9.50;99.90;;;;;;5072728;28;20411;-71
2022/04/25 05:52:51;;;;;;;24.52;13.63;;;9.40;99.90;;;;;;5072482;28;20077;-72
2022/04/25 05:55:17;;;;;;;26.33;14.50;;;9.40;99.90;;;;;;5072168;28;20505;-72
2022/04/25 05:57:43;;;;;;;24.67;13.02;;;9.40;99.90;;;;;;5072362;28;20024;-73
2022/04/25 06:00:10;;;;;;;25.65;13.63;;;9.40;99.90;;;;;;5070999;28;20070;-72
2022/04/25 06:02:40;;;;;;;25.55;14.48;;;9.40;99.90;;;;;;5072765;28;20590;-71
2022/04/25 06:05:07;;;;;;;24.73;14.45;;;9.40;99.90;;;;;;5048019;28;20469;-72
2022/04/25 06:07:33;;;;;;;25.50;14.93;;;9.40;99.90;;;;;;5063719;28;20070;-73
2022/04/25 06:10:00;;;;;;;26.05;13.55;;;9.50;99.90;;;;;;5070648;28;20551;-72
2022/04/25 06:12:26;;;;;;;27.20;14.05;;;9.50;99.90;;;;;;5071308;28;20023;-72
2022/04/25 06:15:01;;;;;;;28.88;14.32;;;9.50;99.90;;;;;;5071771;28;20024;-73
2022/04/25 06:17:27;;;;;;;31.23;15.30;;;9.60;99.90;;;;;;5070529;28;20420;-72
2022/04/25 06:19:53;;;;;;;26.65;14.57;;;9.60;99.90;;;;;;5072620;28;20052;-72
2022/04/25 06:22:19;;;;;;;28.27;14.95;;;9.60;99.90;;;;;;5053940;28;20027;-72
2022/04/25 06:24:45;;;;;;;27.60;14.98;;;9.60;99.90;;;;;;5071545;28;20028;-73
2022/04/25 06:27:10;;;;;;;25.80;14.57;;;9.70;99.90;;;;;;5073229;28;20108;-72
2022/04/25 06:29:36;;;;;;;26.83;14.80;;;9.70;99.90;;;;;;5071629;28;20032;-71
2022/04/25 06:32:05;;;;;;;28.10;15.13;;;9.70;99.90;;;;;;5071577;28;20524;-71
2022/04/25 06:34:31;;;;;;;29.58;15.18;;;9.80;99.90;;;;;;5071555;28;20024;-72
2022/04/25 06:36:57;;;;;;;27.30;14.80;;;9.70;99.90;;;;;;5070467;28;20368;-71
2022/04/25 06:39:22;;;;;;;30.05;15.50;;;9.80;99.90;;;;;;5066885;28;20078;-71
2022/04/25 06:41:48;;;;;;;29.40;15.93;;;9.80;99.90;;;;;;5069542;28;20379;-72
2022/04/25 06:44:13;;;;;;;29.27;15.60;;;9.80;99.90;;;;;;5070344;28;20094;-74
2022/04/25 06:46:39;;;;;;;28.75;15.45;;;9.90;99.90;;;;;;5065892;28;20040;-75
2022/04/25 06:49:20;;;;;;;27.05;15.40;;;9.90;99.90;;;;;;5056269;28;20028;-73
2022/04/25 06:51:46;;;;;;;35.60;15.32;;;9.90;99.90;;;;;;5065583;28;20078;-72
2022/04/25 06:54:13;;;;;;;25.13;14.13;;;10.00;99.90;;;;;;5061023;28;20028;-73
2022/04/25 06:56:39;;;;;;;26.38;15.13;;;10.00;99.90;;;;;;5070594;28;20046;-72
2022/04/25 06:59:05;;;;;;;25.02;15.07;;;10.00;99.90;;;;;;5069745;28;20095;-73
2022/04/25 07:01:30;;;;;;;28.40;15.10;;;10.10;99.90;;;;;;5055732;28;20058;-72
2022/04/25 07:03:56;;;;;;;26.50;14.82;;;10.10;99.90;;;;;;5057262;28;20416;-73
2022/04/25 07:06:21;;;;;;;22.65;14.05;;;10.20;99.90;;;;;;5057075;28;20028;-72
2022/04/25 07:08:47;;;;;;;27.17;14.48;;;10.20;99.90;;;;;;5058563;28;20111;-73
2022/04/25 07:11:12;;;;;;;23.13;14.35;;;10.20;99.90;;;;;;5055489;28;20497;-72
2022/04/25 07:13:41;;;;;;;25.48;14.88;;;10.20;99.90;;;;;;5069925;28;20017;-73
2022/04/25 07:16:09;;;;;;;22.77;14.90;;;10.20;99.90;;;;;;5070101;28;20037;-73
2022/04/25 07:18:34;;;;;;;26.38;15.18;;;10.20;99.90;;;;;;5068836;28;20036;-74
2022/04/25 07:28:48;;;;;;;21.45;14.70;;;10.20;99.90;;;;;;5070264;28;20392;-74
2022/04/25 07:29:14;;;;;;;23.80;14.10;;;10.20;99.90;;;;;;5069879;28;20088;-74
2022/04/25 07:31:39;;;;;;;22.33;14.65;;;10.10;99.90;;;;;;5069728;28;20096;-73
2022/04/25 07:34:05;;;;;;;24.48;14.82;;;10.10;99.90;;;;;;5065579;28;20112;-73
2022/04/25 07:36:30;;;;;;;22.92;13.35;;;10.10;99.90;;;;;;5070307;28;20588;-74
2022/04/25 07:38:56;;;;;;;20.33;11.82;;;10.10;99.90;;;;;;5070785;28;20514;-74
2022/04/25 07:41:21;;;;;;;22.55;14.20;;;10.00;99.90;;;;;;5070155;28;20519;-73
2022/04/25 07:43:48;;;;;;;27.80;14.40;;;10.00;99.90;;;;;;5069950;28;20036;-73
2022/04/25 07:46:16;;;;;;;24.05;15.45;;;9.90;99.90;;;;;;5069893;28;20349;-73
2022/04/25 07:48:42;;;;;;;24.83;15.85;;;9.90;99.90;;;;;;5070943;28;20032;-73
2022/04/25 07:51:07;;;;;;;25.02;15.48;;;9.90;99.90;;;;;;5070400;28;20452;-73
2022/04/25 07:53:33;;;;;;;27.95;15.75;;;9.90;99.90;;;;;;5052512;28;20021;-74
2022/04/25 07:55:58;;;;;;;26.27;17.08;;;9.80;99.90;;;;;;5069873;28;20123;-73
2022/04/25 07:58:24;;;;;;;28.10;16.88;;;9.80;99.90;;;;;;5056083;28;20110;-74
2022/04/25 08:00:50;;;;;;;28.10;17.38;;;9.90;99.90;;;;;;5050756;28;20091;-74
2022/04/25 08:03:15;;;;;;;27.75;17.13;;;9.80;99.90;;;;;;5059470;28;20049;-73
2022/04/25 08:05:41;;;;;;;27.92;17.42;;;9.80;99.90;;;;;;5068783;28;20039;-75
2022/04/25 08:08:07;;;;;;;34.53;18.88;;;9.80;99.90;;;;;;5070054;28;20278;-73
2022/04/25 08:10:32;;;;;;;29.98;17.58;;;9.80;99.90;;;;;;5069651;28;20029;-73
2022/04/25 08:18:26;;;;;;;30.48;18.13;;;9.90;99.90;;;;;;5069645;28;20059;-71
2022/04/25 08:20:52;;;;;;;30.05;17.67;;;10.00;99.90;;;;;;5070151;28;20020;-72
2022/04/25 08:23:18;;;;;;;36.63;17.75;;;10.00;99.90;;;;;;5069788;28;20028;-71
2022/04/25 08:25:44;;;;;;;31.83;17.42;;;10.10;99.90;;;;;;5070070;28;20495;-72
2022/04/25 08:28:10;;;;;;;31.73;17.17;;;10.10;99.90;;;;;;5070033;28;20029;-72
2022/04/25 08:30:36;;;;;;;31.70;17.67;;;10.10;99.90;;;;;;5067838;28;20709;-72
2022/04/25 08:33:02;;;;;;;30.15;16.75;;;10.10;99.90;;;;;;5057313;28;20108;-72
2022/04/25 08:35:28;;;;;;;29.75;16.73;;;10.10;99.90;;;;;;5049270;28;20024;-72
2022/04/25 08:37:56;;;;;;;29.27;16.80;;;10.10;99.90;;;;;;5049943;28;20449;-73
2022/04/25 08:40:22;;;;;;;29.00;18.00;;;10.10;99.90;;;;;;5061114;28;20135;-73
2022/04/25 08:42:48;;;;;;;28.92;17.88;;;10.10;99.90;;;;;;5058178;28;20524;-74
2022/04/25 08:45:14;;;;;;;31.98;18.27;;;10.10;99.90;;;;;;5057760;28;20052;-72
2022/04/25 08:47:53;;;;;;;31.05;19.15;;;10.10;99.90;;;;;;5056695;28;20060;-73
2022/04/25 08:50:18;;;;;;;30.25;18.05;;;10.10;99.90;;;;;;5065364;28;20429;-75
2022/04/25 08:52:46;;;;;;;30.98;18.15;;;10.20;99.90;;;;;;5064916;28;20017;-74
2022/04/25 08:55:16;;;;;;;30.15;18.15;;;10.20;99.90;;;;;;5063207;28;20359;-73
2022/04/25 08:57:43;;;;;;;30.67;18.10;;;10.20;99.90;;;;;;5057436;28;20064;-73
2022/04/25 09:00:10;;;;;;;27.50;17.48;;;10.20;99.90;;;;;;5062656;28;20025;-74
2022/04/25 09:02:38;;;;;;;34.72;17.92;;;10.20;99.90;;;;;;5045574;28;20048;-74
2022/04/25 09:05:11;;;;;;;32.42;18.83;;;10.30;99.90;;;;;;5060590;28;20024;-73
2022/04/25 09:07:37;;;;;;;28.80;17.30;;;10.30;99.90;;;;;;5036456;28;20029;-73
2022/04/25 09:10:11;;;;;;;30.92;17.48;;;10.40;99.90;;;;;;5032412;28;20029;-73
2022/04/25 09:12:38;;;;;;;31.52;18.15;;;10.40;99.90;;;;;;5050006;28;20091;-73
2022/04/25 09:15:08;;;;;;;29.83;17.95;;;10.50;99.90;;;;;;5034849;28;20480;-73
2022/04/25 09:17:37;;;;;;;30.50;17.15;;;10.50;99.90;;;;;;5048750;28;20029;-73
2022/04/25 09:20:05;;;;;;;25.52;16.02;;;10.60;99.90;;;;;;5056787;28;20102;-74
2022/04/25 09:22:32;;;;;;;31.10;16.70;;;10.60;99.90;;;;;;5056660;28;20013;-74
2022/04/25 09:25:07;;;;;;;32.30;17.15;;;10.70;99.90;;;;;;5060466;28;20473;-73
2022/04/25 09:27:33;;;;;;;26.33;16.73;;;10.80;99.90;;;;;;5066260;28;20047;-72
2022/04/25 09:30:16;;;;;;;27.30;16.80;;;10.80;99.90;;;;;;5041960;28;20805;-73
2022/04/25 09:32:42;;;;;;;26.30;16.55;;;10.90;99.90;;;;;;5060735;28;20041;-74
2022/04/25 09:35:29;;;;;;;26.05;16.48;;;10.90;99.90;;;;;;5039877;28;20063;-73
2022/04/25 09:37:56;;;;;;;26.20;16.15;;;10.90;99.90;;;;;;5056193;28;20481;-73
2022/04/25 09:40:24;;;;;;;26.45;15.80;;;10.90;99.90;;;;;;5058984;28;20111;-74
2022/04/25 09:43:04;;;;;;;26.10;15.98;;;10.90;99.90;;;;;;5071661;28;20032;-74
2022/04/25 09:45:30;;;;;;;25.10;14.63;;;10.90;99.90;;;;;;5071880;28;20029;-73
2022/04/25 09:47:56;;;;;;;27.00;16.02;;;10.90;99.90;;;;;;5054242;28;20032;-73
2022/04/25 09:50:22;;;;;;;27.75;15.95;;;10.80;99.90;;;;;;5070044;28;20501;-74
2022/04/25 09:52:58;;;;;;;23.88;15.45;;;10.80;99.90;;;;;;5056674;28;20028;-73
2022/04/25 09:55:27;;;;;;;27.60;16.45;;;10.80;99.90;;;;;;5071358;28;20040;-75
2022/04/25 09:57:53;;;;;;;26.23;15.93;;;10.80;99.90;;;;;;5064478;28;20040;-73
2022/04/25 10:00:39;;;;;;;28.50;15.30;;;10.80;99.90;;;;;;5071951;28;20036;-74
2022/04/25 10:03:06;;;;;;;25.30;15.93;;;10.80;99.90;;;;;;5050634;28;20069;-73
2022/04/25 10:05:36;;;;;;;28.13;15.75;;;10.70;99.90;;;;;;5070593;28;20100;-74
2022/04/25 10:08:02;;;;;;;22.40;14.88;;;10.80;99.90;;;;;;5072047;28;20056;-73
2022/04/25 10:10:27;;;;;;;23.00;15.13;;;10.70;99.90;;;;;;5072307;28;20353;-73
2022/04/25 10:12:55;;;;;;;25.27;14.40;;;10.70;99.90;;;;;;5052820;28;20036;-73
2022/04/25 10:15:21;;;;;;;26.60;15.98;;;10.80;99.90;;;;;;5061058;28;20021;-74
2022/04/25 10:17:47;;;;;;;25.13;15.85;;;10.80;99.90;;;;;;5063545;28;20495;-74
2022/04/25 10:20:14;;;;;;;24.60;15.27;;;10.80;99.90;;;;;;5054822;28;20066;-73
2022/04/25 10:22:41;;;;;;;23.67;15.00;;;10.80;99.90;;;;;;5064583;28;20027;-75
2022/04/25 10:25:06;;;;;;;26.08;15.98;;;10.80;99.90;;;;;;5067537;28;20397;-73
2022/04/25 10:27:35;;;;;;;25.23;15.82;;;10.80;99.90;;;;;;5051565;28;20127;-73
2022/04/25 10:30:11;;;;;;;27.55;15.82;;;10.80;99.90;;;;;;5039533;28;20454;-73
2022/04/25 10:32:37;;;;;;;29.40;15.93;;;10.80;99.90;;;;;;5064963;28;20049;-74
2022/04/25 10:35:05;;;;;;;25.15;15.98;;;10.80;99.90;;;;;;5069345;28;20028;-74
2022/04/25 10:37:35;;;;;;;25.92;15.80;;;10.90;99.90;;;;;;5069740;28;20037;-73
2022/04/25 10:40:09;;;;;;;26.27;15.43;;;11.00;99.90;;;;;;5066781;28;20469;-73
2022/04/25 10:45:55;;;;;;;25.30;15.00;;;11.10;99.90;;;;;;5068837;28;20512;-74
2022/04/25 10:48:20;;;;;;;25.88;15.38;;;11.10;99.90;;;;;;5062476;28;20033;-72
2022/04/25 10:51:07;;;;;;;25.13;15.70;;;11.10;99.90;;;;;;5066635;28;20016;-72
2022/04/25 10:53:59;;;;;;;29.23;15.73;;;11.10;99.90;;;;;;5055092;28;20025;-72
2022/04/25 10:56:26;;;;;;;27.83;15.90;;;11.10;99.90;;;;;;5067895;28;20368;-73
2022/04/25 10:59:24;;;;;;;25.30;15.18;;;11.10;99.90;;;;;;5068704;28;20032;-73
2022/04/25 11:01:51;;;;;;;28.98;16.17;;;11.20;99.90;;;;;;5062554;28;20123;-74
2022/04/25 11:04:19;;;;;;;29.75;16.17;;;11.20;99.90;;;;;;5069053;28;20021;-73
2022/04/25 11:06:45;;;;;;;25.67;15.23;;;11.20;99.90;;;;;;5065668;28;20460;-73
2022/04/25 11:09:10;;;;;;;24.50;15.40;;;11.10;99.90;;;;;;5071164;28;20024;-73
2022/04/25 11:11:47;;;;;;;26.98;16.02;;;11.10;99.90;;;;;;5069987;28;20067;-73
2022/04/25 11:14:14;;;;;;;23.63;15.43;;;11.10;99.90;;;;;;5068759;28;20608;-72
2022/04/25 11:16:41;;;;;;;26.80;14.98;;;11.00;99.90;;;;;;5063187;28;20041;-73
2022/04/25 11:19:21;;;;;;;25.48;15.63;;;11.00;99.90;;;;;;5055330;28;20049;-73
2022/04/25 11:21:49;;;;;;;22.88;15.15;;;11.00;99.90;;;;;;5051864;28;20111;-73
2022/04/25 11:24:33;;;;;;;27.42;14.95;;;11.00;99.90;;;;;;5041259;28;20029;-73
2022/04/25 11:27:01;;;;;;;26.15;15.90;;;11.00;99.90;;;;;;5050723;28;20112;-74
2022/04/25 11:29:26;;;;;;;29.77;16.90;;;10.90;99.90;;;;;;5056082;28;20020;-73
2022/04/25 11:32:25;;;;;;;28.10;15.45;;;11.00;99.90;;;;;;5050142;28;20383;-73
2022/04/25 11:34:51;;;;;;;30.17;16.83;;;11.00;99.90;;;;;;5052173;28;20039;-73
2022/04/25 11:37:18;;;;;;;28.30;15.70;;;11.00;99.90;;;;;;5049251;28;20583;-73
2022/04/25 11:39:55;;;;;;;28.08;16.20;;;10.90;99.90;;;;;;5051778;28;20098;-72
2022/04/25 11:42:20;;;;;;;26.13;15.75;;;10.90;99.90;;;;;;5055827;28;20033;-73
2022/04/25 11:44:46;;;;;;;28.80;17.67;;;10.90;99.90;;;;;;5050274;28;20500;-72
2022/04/25 11:47:12;;;;;;;26.05;16.98;;;10.90;99.90;;;;;;5049698;28;20515;-73
2022/04/25 11:49:38;;;;;;;28.13;16.10;;;10.90;99.90;;;;;;5055614;28;20086;-74
2022/04/25 11:52:05;;;;;;;26.85;17.00;;;10.90;99.90;;;;;;5050474;28;20487;-72
2022/04/25 11:54:32;;;;;;;30.17;16.90;;;11.00;99.90;;;;;;5051495;28;20024;-73
2022/04/25 11:57:02;;;;;;;27.08;17.27;;;11.00;99.90;;;;;;5054314;28;20032;-74
2022/04/25 11:59:28;;;;;;;27.88;16.92;;;11.10;99.90;;;;;;5055242;28;20138;-72
2022/04/25 12:01:55;;;;;;;30.15;17.38;;;11.10;99.90;;;;;;5050363;28;20025;-72
2022/04/25 12:04:33;;;;;;;26.00;16.67;;;11.30;99.90;;;;;;5060411;28;20059;-73
2022/04/25 12:07:04;;;;;;;26.90;16.83;;;11.50;99.90;;;;;;5067283;28;20090;-72
2022/04/25 12:15:40;;;;;;;27.85;16.85;;;11.90;99.90;;;;;;5049983;28;20033;-72
2022/04/25 12:18:30;;;;;;;26.05;16.45;;;12.10;99.90;;;;;;5049803;28;20029;-73
2022/04/25 12:21:10;;;;;;;30.48;16.85;;;12.20;99.90;;;;;;5051845;28;20063;-73
2022/04/25 12:23:45;;;;;;;26.63;16.85;;;12.40;99.90;;;;;;5050638;28;20049;-73
2022/04/25 12:26:22;;;;;;;31.40;16.60;;;12.60;99.90;;;;;;5051449;28;20530;-73
2022/04/25 12:29:00;;;;;;;24.27;15.65;;;12.70;99.90;;;;;;5060399;28;20078;-73
2022/04/25 12:31:36;;;;;;;25.77;15.15;;;12.70;99.90;;;;;;5066163;28;20058;-73
2022/04/25 12:34:07;;;;;;;26.58;14.68;;;12.60;99.90;;;;;;5069571;28;20052;-72
2022/04/25 12:36:33;;;;;;;21.80;14.27;;;12.50;99.90;;;;;;5069034;28;20107;-72
2022/04/25 12:39:01;;;;;;;22.10;15.05;;;12.30;99.90;;;;;;5065755;28;20618;-72
2022/04/25 12:41:32;;;;;;;22.73;14.68;;;12.20;99.90;;;;;;5062265;28;20021;-72
2022/04/25 12:44:11;;;;;;;22.70;14.60;;;12.10;99.90;;;;;;5068859;28;20095;-72
2022/04/25 12:46:42;;;;;;;24.95;15.35;;;11.90;99.90;;;;;;5070491;28;20024;-72
2022/04/25 12:49:16;;;;;;;25.73;15.05;;;11.70;99.90;;;;;;5070393;28;20041;-73
2022/04/25 12:51:52;;;;;;;26.80;15.27;;;11.50;99.90;;;;;;5069676;28;20044;-72
2022/04/25 12:54:20;;;;;;;21.02;13.48;;;11.40;99.90;;;;;;5065882;28;20025;-72
2022/04/25 12:56:47;;;;;;;17.42;12.50;;;11.40;99.90;;;;;;5065497;28;20055;-74
2022/04/25 12:59:12;;;;;;;21.40;13.82;;;11.50;99.90;;;;;;5069137;28;20476;-73
2022/04/25 13:01:38;;;;;;;19.98;14.13;;;11.50;99.90;;;;;;5063680;28;20021;-72
2022/04/25 13:04:08;;;;;;;24.08;15.23;;;11.50;99.90;;;;;;5051829;28;20031;-73
2022/04/25 13:06:35;;;;;;;25.00;14.85;;;11.40;99.90;;;;;;5062179;28;20476;-73
2022/04/25 13:09:01;;;;;;;25.05;15.43;;;11.50;99.90;;;;;;5068946;28;20060;-73